Weather at Parkway Farm Strip

Public forecast

Using degrees Fahrenheit for public forecast. Weather courtesy of forecast.io.

Closest aviation weather report (METAR) to Parkway Farm Strip

Closest report is La Crosse Municipal Airport, 7.8 nm (14.4 km) SSE. Retrieved 2021/06/25 02:43 UTC (10 minutes ago):

KLSE 250243Z AUTO 11007KT 10SM -RA FEW035 SCT050 BKN110 22/20 A2982 RMK AO2 TSE23 P0005 T02220200

Closest aviation forecast (TAF) to Parkway Farm Strip

Closest forecast is La Crosse Municipal Airport, 7.8 nm (14.4 km) SSE. Retrieved 2021-06-25 00:24 UTC (2 hours ago):

TAF KLSE 242323Z 2500/2524 20009KT P6SM SCT050 FM250100 20006KT P6SM VCTS BKN040CB FM250600 VRB03KT 5SM BR BKN018 FM251000 VRB03KT 2SM BR BKN007 FM251400 03005KT P6SM BKN018 FM251800 03005KT P6SM SCT040